Time;durP1;ratioP1;P1;durP2;ratioP2;P2;SDS_P1;SDS_P2;PMS_P1;PMS_P2;Temp;Humidity;BMP_temperature;BMP_pressure;BME280_temperature;BME280_humidity;BME280_pressure;Samples;Min_cycle;Max_cycle;Signal;HPM_P1;HPM_P2
2022/03/24 00:04:46;;;;;;;4.23;2.63;;;;;;;;;;20747266;28;20200;-72
2022/03/24 00:14:47;;;;;;;4.33;2.57;;;;;;;;;;20747025;28;20573;-72
2022/03/24 00:24:49;;;;;;;4.23;2.67;;;;;;;;;;20745855;28;20270;-72
2022/03/24 00:34:57;;;;;;;3.60;2.50;;;;;;;;;;20744222;28;20223;-72
2022/03/24 00:44:59;;;;;;;3.80;2.50;;;;;;;;;;20744667;28;20261;-73
2022/03/24 00:55:02;;;;;;;4.97;2.97;;;;;;;;;;20742032;28;20273;-72
2022/03/24 01:05:04;;;;;;;4.43;2.33;;;;;;;;;;20743111;28;20281;-72
2022/03/24 01:15:06;;;;;;;4.83;2.90;;;;;;;;;;20709337;28;20277;-72
2022/03/24 01:25:08;;;;;;;4.63;2.80;;;9.80;99.90;;;;;;20738156;28;20285;-72
2022/03/24 01:35:10;;;;;;;5.67;3.23;;;;;;;;;;20740188;28;20618;-72
2022/03/24 01:45:12;;;;;;;3.83;2.47;;;;;;;;;;20723536;28;20235;-73
2022/03/24 01:55:13;;;;;;;7.27;2.80;;;;;;;;;;20739551;28;20219;-72
2022/03/24 02:05:15;;;;;;;5.60;2.90;;;;;;;;;;20750583;28;20249;-73
2022/03/24 02:15:18;;;;;;;2.70;2.17;;;;;;;;;;20733736;28;20206;-73
2022/03/24 02:25:22;;;;;;;3.80;2.70;;;;;;;;;;20752850;28;20596;-72
2022/03/24 02:35:24;;;;;;;3.50;2.30;;;;;;;;;;20753106;28;20284;-73
2022/03/24 02:45:26;;;;;;;4.27;2.30;;;;;;;;;;20735687;28;20223;-72
2022/03/24 02:55:27;;;;;;;3.87;2.57;;;;;;;;;;20753052;28;20706;-72
2022/03/24 03:05:29;;;;;;;6.03;2.70;;;;;;;;;;20752490;28;20273;-73
2022/03/24 03:15:31;;;;;;;3.60;2.53;;;;;;;;;;20745564;28;20787;-72
2022/03/24 03:25:33;;;;;;;4.00;3.07;;;;;;;;;;20749229;28;20582;-72
2022/03/24 03:35:34;;;;;;;3.43;2.50;;;;;;;;;;20749715;28;20576;-73
2022/03/24 03:45:36;;;;;;;5.47;2.70;;;;;;;;;;20837327;23;20639;-64
2022/03/24 03:55:39;;;;;;;4.13;2.80;;;;;;;;;;20813527;28;20214;-63
2022/03/24 04:05:41;;;;;;;4.67;2.97;;;;;;;;;;20813046;28;20253;-63
2022/03/24 04:15:43;;;;;;;4.83;2.63;;;;;;;;;;20796305;28;20214;-64
2022/03/24 04:25:45;;;;;;;3.77;1.97;;;7.60;99.90;;;;;;20793951;28;20202;-64
2022/03/24 04:35:47;;;;;;;4.43;2.73;;;;;;;;;;20792725;28;20273;-63
2022/03/24 04:45:49;;;;;;;3.73;2.40;;;;;;;;;;20793832;28;20284;-63
2022/03/24 04:55:51;;;;;;;5.37;2.43;;;;;;;;;;20793480;28;20288;-65
2022/03/24 05:05:54;;;;;;;3.40;2.40;;;;;;;;;;20785522;28;20268;-64
2022/03/24 05:15:56;;;;;;;4.27;2.57;;;;;;;;;;20808765;28;20230;-65
2022/03/24 05:25:59;;;;;;;3.43;2.07;;;;;;;;;;20805913;28;20206;-65
2022/03/24 05:36:02;;;;;;;4.93;2.30;;;;;;;;;;20799239;28;20230;-65
2022/03/24 05:46:04;;;;;;;2.93;2.07;;;;;;;;;;20789429;28;20593;-64
2022/03/24 05:56:08;;;;;;;6.93;2.80;;;;;;;;;;20791500;28;20245;-64
2022/03/24 06:06:10;;;;;;;3.70;1.83;;;;;;;;;;20787329;28;20245;-64
2022/03/24 06:16:13;;;;;;;6.27;2.50;;;;;;;;;;20798253;28;20218;-64
2022/03/24 06:26:15;;;;;;;8.73;3.17;;;;;;;;;;20787140;28;20218;-64
2022/03/24 06:36:17;;;;;;;4.20;2.63;;;;;;;;;;20787907;28;20222;-64
2022/03/24 06:46:19;;;;;;;4.03;2.53;;;;;;;;;;20821127;28;20231;-64
2022/03/24 06:56:21;;;;;;;5.57;3.00;;;;;;;;;;20820149;28;20226;-64
2022/03/24 07:06:23;;;;;;;8.63;4.77;;;;;;;;;;20832258;28;20264;-63
2022/03/24 07:16:25;;;;;;;5.73;3.47;;;;;;;;;;20818042;28;20226;-64
2022/03/24 07:26:27;;;;;;;5.73;3.00;;;;;;;;;;20801478;28;20202;-64
2022/03/24 07:36:29;;;;;;;5.00;3.57;;;;;;;;;;20793440;28;20218;-64
2022/03/24 07:46:31;;;;;;;5.17;3.50;;;;;;;;;;20816058;28;20234;-63
2022/03/24 07:56:34;;;;;;;5.80;3.87;;;;;;;;;;20800546;28;20680;-64
2022/03/24 08:06:36;;;;;;;5.50;3.37;;;;;;;;;;20858848;28;20209;-64
2022/03/24 08:16:38;;;;;;;9.80;4.33;;;;;;;;;;20832596;28;20831;-63
2022/03/24 08:26:40;;;;;;;5.70;3.67;;;;;;;;;;20793861;28;20274;-63
2022/03/24 08:36:42;;;;;;;7.20;3.53;;;;;;;;;;20793674;28;20643;-64
2022/03/24 08:46:44;;;;;;;5.17;3.80;;;;;;;;;;20804549;28;20226;-64
2022/03/24 08:56:46;;;;;;;8.33;4.20;;;;;;;;;;20863632;28;20217;-63
2022/03/24 09:06:48;;;;;;;7.63;4.23;;;;;;;;;;20887894;28;20279;-63
2022/03/24 09:16:50;;;;;;;6.97;4.00;;;;;;;;;;20871728;28;20218;-64
2022/03/24 09:26:52;;;;;;;6.97;4.30;;;;;;;;;;20833460;28;20227;-64
2022/03/24 09:36:54;;;;;;;6.40;3.87;;;;;;;;;;20783877;28;20747;-64
2022/03/24 09:46:56;;;;;;;8.73;4.67;;;;;;;;;;20783582;22;20269;-81
2022/03/24 09:57:06;;;;;;;7.53;4.67;;;14.40;99.90;;;;;;20739563;28;20310;-81
2022/03/24 10:07:08;;;;;;;9.87;6.20;;;;;;;;;;20725125;28;20223;-80
2022/03/24 10:17:11;;;;;;;9.07;4.40;;;15.20;99.90;;;;;;20743225;28;20215;-81
2022/03/24 10:27:20;;;;;;;8.43;4.67;;;15.50;99.90;;;;;;20718850;28;20770;-83
2022/03/24 10:37:25;;;;;;;13.63;5.20;;;;;;;;;;20754629;28;20227;-82
2022/03/24 10:47:40;;;;;;;6.67;4.50;;;;;;;;;;20708138;28;20565;-82
2022/03/24 10:57:41;;;;;;;6.73;4.50;;;;;;;;;;20702838;28;20227;-82
2022/03/24 11:07:54;;;;;;;8.50;5.70;;;;;;;;;;20757673;28;20242;-82
2022/03/24 11:28:46;;;;;;;9.40;5.77;;;;;;;;;;20801155;28;20326;-82
2022/03/24 11:39:11;;;;;;;11.87;6.07;;;;;;;;;;20717462;28;20312;-82
2022/03/24 11:50:08;;;;;;;9.13;5.57;;;;;;;;;;20740420;28;20701;-82
2022/03/24 12:00:17;;;;;;;9.37;5.97;;;;;;;;;;20711501;28;20231;-82
2022/03/24 12:10:31;;;;;;;10.90;5.33;;;;;;;;;;20746445;28;20238;-82
2022/03/24 12:20:42;;;;;;;8.53;4.73;;;;;;;;;;20713552;28;20288;-82
2022/03/24 12:30:53;;;;;;;10.67;5.13;;;;;;;;;;20734725;28;20660;-81
2022/03/24 12:41:04;;;;;;;8.43;4.77;;;;;;;;;;20731633;28;20246;-82
2022/03/24 12:51:20;;;;;;;10.17;4.43;;;;;;;;;;20718235;28;20253;-82
2022/03/24 13:01:22;;;;;;;6.20;4.23;;;;;;;;;;20713474;28;20688;-82
2022/03/24 13:11:47;;;;;;;6.27;3.70;;;;;;;;;;20732222;28;20211;-82
2022/03/24 13:21:52;;;;;;;6.97;4.03;;;;;;;;;;20715059;28;20227;-82
2022/03/24 13:31:54;;;;;;;8.60;4.10;;;;;;;;;;20728736;28;20215;-82
2022/03/24 13:52:46;;;;;;;7.97;4.33;;;;;;;;;;20729103;28;20222;-82
2022/03/24 14:03:17;;;;;;;8.50;4.37;;;;;;;;;;20698349;28;20223;-82
2022/03/24 14:13:29;;;;;;;5.47;3.23;;;;;;;;;;20714921;28;20239;-82
2022/03/24 14:23:58;;;;;;;;;;;;;;;;;;;;;
2022/03/24 14:34:01;;;;;;;6.13;3.70;;;;;;;;;;20781462;28;20214;-82
2022/03/24 14:44:24;;;;;;;6.00;3.90;;;;;;;;;;20759432;28;20265;-82
2022/03/24 14:54:27;;;;;;;6.57;3.93;;;;;;;;;;20759735;28;20232;-82
2022/03/24 15:04:32;;;;;;;6.37;4.07;;;;;;;;;;20724109;28;20243;-82
2022/03/24 15:24:54;;;;;;;5.63;3.93;;;;;;;;;;20755291;28;20289;-82
2022/03/24 15:34:56;;;;;;;8.23;4.33;;;;;;;;;;20719672;28;20762;-81
2022/03/24 15:44:59;;;;;;;6.40;3.93;;;;;;;;;;20749879;28;20763;-82
2022/03/24 16:05:21;;;;;;;7.50;4.10;;;;;;;;;;21295228;27;20562;-64
2022/03/24 16:15:23;;;;;;;6.10;3.90;;;;;;;;;;21178000;27;20203;-64
2022/03/24 16:25:25;;;;;;;7.47;4.50;;;;;;;;;;21189422;27;20211;-64
2022/03/24 16:35:27;;;;;;;7.67;4.47;;;;;;;;;;21189139;27;20203;-64
2022/03/24 16:45:29;;;;;;;6.60;4.40;;;;;;;;;;21174369;28;20199;-65
2022/03/24 16:55:35;;;;;;;9.03;4.87;;;;;;;;;;21174858;28;20192;-64
2022/03/24 17:05:37;;;;;;;10.10;5.30;;;;;;;;;;21174326;28;20199;-64
2022/03/24 17:15:39;;;;;;;9.00;5.43;;;;;;;;;;21139328;28;20207;-64
2022/03/24 17:25:41;;;;;;;8.47;4.47;;;;;;;;;;21100535;28;20225;-64
2022/03/24 17:35:43;;;;;;;8.97;4.87;;;;;;;;;;21132950;28;20200;-65
2022/03/24 17:45:45;;;;;;;9.27;4.73;;;;;;;;;;21131862;28;20224;-65
2022/03/24 17:55:47;;;;;;;8.07;5.00;;;;;;;;;;21114417;28;20245;-65
2022/03/24 18:05:49;;;;;;;10.23;5.33;;;;;;;;;;21120184;28;20639;-63
2022/03/24 18:15:51;;;;;;;7.97;5.07;;;;;;;;;;21101866;28;20215;-64
2022/03/24 18:25:53;;;;;;;11.50;5.33;;;;;;;;;;21100712;28;20231;-64
2022/03/24 18:35:55;;;;;;;11.73;6.00;;;;;;;;;;21080931;28;20234;-64
2022/03/24 18:45:59;;;;;;;12.50;8.10;;;;;;;;;;21022379;28;20216;-64
2022/03/24 18:56:08;;;;;;;7.73;4.67;;;;;;;;;;21020034;28;20273;-64
2022/03/24 19:06:10;;;;;;;9.33;5.40;;;;;;;;;;21017355;28;20220;-64
2022/03/24 19:16:15;;;;;;;8.40;4.90;;;;;;;;;;21077963;28;20285;-64
2022/03/24 19:26:18;;;;;;;7.17;4.20;;;;;;;;;;21136196;27;20265;-64
2022/03/24 19:36:20;;;;;;;5.13;3.50;;;;;;;;;;21094528;28;20621;-64
2022/03/24 19:46:24;;;;;;;7.13;4.10;;;;;;;;;;21070006;28;20254;-64
2022/03/24 19:56:26;;;;;;;5.17;3.57;;;;;;;;;;21061572;28;20223;-63
2022/03/24 20:06:29;;;;;;;5.83;3.70;;;;;;;;;;21014939;28;20706;-64
2022/03/24 20:16:32;;;;;;;5.90;3.10;;;;;;;;;;21041764;28;20212;-64
2022/03/24 20:26:34;;;;;;;7.00;3.73;;;;;;;;;;21026966;28;20208;-64
2022/03/24 20:36:36;;;;;;;8.07;3.83;;;;;;;;;;21060487;28;20197;-64
2022/03/24 20:46:38;;;;;;;6.63;3.73;;;;;;;;;;21033649;28;20220;-64
2022/03/24 20:56:40;;;;;;;6.17;4.13;;;;;;;;;;21057562;28;20224;-64
2022/03/24 21:06:42;;;;;;;7.67;4.47;;;;;;;;;;21038416;28;20225;-64
2022/03/24 21:16:44;;;;;;;9.07;3.60;;;;;;;;;;21023396;28;20201;-64
2022/03/24 21:26:47;;;;;;;8.73;4.50;;;;;;;;;;21051294;28;20209;-63
2022/03/24 21:36:49;;;;;;;7.13;4.27;;;14.30;97.40;;;;;;21036125;28;20253;-64
2022/03/24 21:46:52;;;;;;;8.50;4.50;;;;;;;;;;21050965;28;20216;-64
2022/03/24 21:56:55;;;;;;;6.53;4.70;;;;;;;;;;20941947;28;20231;-64
2022/03/24 22:06:57;;;;;;;8.77;4.53;;;;;;;;;;21105579;22;20281;-83
2022/03/24 22:17:05;;;;;;;7.50;4.17;;;;;;;;;;21055284;28;20813;-82
2022/03/24 22:27:11;;;;;;;7.83;5.20;;;;;;;;;;21034557;28;20224;-82
2022/03/24 22:37:22;;;;;;;6.90;4.53;;;;;;;;;;21039697;27;20216;-82
2022/03/24 22:48:11;;;;;;;7.07;4.70;;;;;;;;;;21052692;28;20285;-82
2022/03/24 23:10:07;;;;;;;7.83;4.00;;;;;;;;;;21053390;22;20286;-63
2022/03/24 23:20:10;;;;;;;8.87;5.20;;;;;;;;;;20924851;28;20209;-64
2022/03/24 23:30:12;;;;;;;7.47;4.53;;;;;;;;;;20956912;28;20213;-64
2022/03/24 23:40:15;;;;;;;8.67;4.47;;;12.30;99.90;;;;;;20955866;28;20270;-64
2022/03/24 23:50:17;;;;;;;6.20;4.17;;;;;;;;;;20923232;28;20695;-63
